42J

Keystone Airpark

Keystone Heights, Florida, USA
METAR K42J 181255Z AUTO 00000KT 10SM CLR 26/26 A3016 RMK AO1 TSNO
Observed Flight Rules
Jun-18 @ 12:55 UTC (23 minutes ago) Visual Flight Rules
Visibility Clouds
10 miles
  • Clear skies
Temperatures Readings
Current 26°C / 79°F
Dewpoint 26°C / 79°F
Humidity 100%
Altimeter 30.16" Hg
Pressure 1021 hPa
Elevation 60
METAR K42J 181255Z AUTO 00000KT 10SM CLR 26/26 A3016 RMK AO1 TSNO
Observed Flight Rules
Jun-18 @ 12:55 UTC
(23 minutes ago)
VFR
Clouds
  • Clear skies
Temperature Dewpoint
26°C / 79°F 26°C / 79°F
Humidity Altimeter Pressure
100% 30.16" Hg 1021 hPa